createdAt,value
2022-08-02T00:00:59.768Z,15.20
2022-08-02T00:03:26.743Z,9.30
2022-08-02T00:05:54.170Z,9.13
2022-08-02T00:08:22.044Z,7.57
2022-08-02T00:10:49.668Z,14.80
2022-08-02T00:13:16.824Z,14.63
2022-08-02T00:15:43.783Z,11.35
2022-08-02T00:18:10.757Z,11.60
2022-08-02T00:20:37.712Z,10.52
2022-08-02T00:23:04.786Z,7.40
2022-08-02T00:25:31.764Z,21.13
2022-08-02T00:27:58.771Z,8.77
2022-08-02T00:30:27.122Z,10.55
2022-08-02T00:32:54.100Z,10.63
2022-08-02T00:35:21.287Z,15.63
2022-08-02T00:37:48.411Z,9.00
2022-08-02T00:40:15.534Z,8.98
2022-08-02T00:42:44.306Z,10.40
2022-08-02T00:45:11.461Z,9.27
2022-08-02T00:47:38.452Z,11.90
2022-08-02T00:50:05.949Z,9.40
2022-08-02T00:52:32.907Z,13.40
2022-08-02T00:54:59.870Z,7.47
2022-08-02T00:57:26.879Z,10.70
2022-08-02T00:59:53.816Z,13.10
2022-08-02T01:02:20.765Z,8.73
2022-08-02T01:04:47.759Z,10.70
2022-08-02T01:07:14.751Z,6.40
2022-08-02T01:09:45.737Z,14.05
2022-08-02T01:12:13.561Z,16.23
2022-08-02T01:14:49.676Z,13.67
2022-08-02T01:17:40.828Z,12.57
2022-08-02T01:20:41.565Z,12.57
2022-08-02T01:23:25.052Z,10.90
2022-08-02T01:26:07.119Z,10.98
2022-08-02T01:28:42.553Z,10.37
2022-08-02T01:31:33.775Z,11.23
2022-08-02T01:34:12.354Z,13.05
2022-08-02T01:36:44.123Z,14.05
2022-08-02T01:39:27.747Z,14.50
2022-08-02T01:42:01.197Z,12.50
2022-08-02T01:44:31.949Z,15.57
2022-08-02T01:47:04.375Z,12.07
2022-08-02T01:49:33.656Z,11.23
2022-08-02T01:52:21.625Z,12.50
2022-08-02T01:54:57.721Z,7.37
2022-08-02T01:57:26.710Z,8.93
2022-08-02T01:59:57.949Z,9.27
2022-08-02T02:02:30.062Z,14.25
2022-08-02T02:05:00.878Z,10.57
2022-08-02T02:07:30.350Z,13.23
2022-08-02T02:09:59.698Z,10.65
2022-08-02T02:12:28.763Z,7.88
2022-08-02T02:14:57.059Z,15.50
2022-08-02T02:17:52.095Z,9.75
2022-08-02T02:20:15.997Z,11.73
2022-08-02T02:22:43.503Z,16.80
2022-08-02T02:25:12.020Z,11.13
2022-08-02T02:27:59.226Z,14.82
2022-08-02T02:30:27.984Z,16.75
2022-08-02T02:32:58.746Z,9.93
2022-08-02T02:35:30.629Z,12.68
2022-08-02T02:38:01.199Z,13.85
2022-08-02T02:40:29.331Z,9.45
2022-08-02T02:42:58.292Z,9.73
2022-08-02T02:45:25.774Z,12.17
2022-08-02T02:47:55.341Z,10.57
2022-08-02T02:50:23.904Z,14.98
2022-08-02T02:52:52.402Z,10.57
2022-08-02T02:55:22.253Z,13.70
2022-08-02T02:57:49.676Z,12.37
2022-08-02T03:00:17.483Z,11.50
2022-08-02T03:02:45.650Z,13.82
2022-08-02T03:05:13.212Z,13.70
2022-08-02T03:07:40.360Z,12.30
2022-08-02T03:10:08.343Z,15.70
2022-08-02T03:12:36.469Z,13.13
2022-08-02T03:15:08.374Z,10.05
2022-08-02T03:17:43.602Z,14.10
2022-08-02T03:20:16.567Z,12.13
2022-08-02T03:22:45.150Z,17.47
2022-08-02T03:25:14.255Z,14.05
2022-08-02T03:27:41.567Z,9.45
2022-08-02T03:30:11.706Z,14.30
2022-08-02T03:32:40.683Z,14.35
2022-08-02T03:35:10.797Z,13.77
2022-08-02T03:37:38.637Z,14.80
2022-08-02T03:40:08.415Z,11.30
2022-08-02T03:42:35.366Z,15.80
2022-08-02T03:45:08.454Z,11.80
2022-08-02T03:47:38.642Z,10.20
2022-08-02T03:50:12.399Z,7.43
2022-08-02T03:52:42.319Z,12.80
2022-08-02T03:55:11.782Z,13.35
2022-08-02T03:57:40.215Z,10.82
2022-08-02T04:00:09.556Z,12.13
2022-08-02T04:02:39.504Z,11.88
2022-08-02T04:05:06.721Z,9.90
2022-08-02T04:08:36.196Z,16.60
2022-08-02T04:10:20.607Z,7.85
2022-08-02T04:12:47.616Z,6.77
2022-08-02T04:15:15.732Z,8.73
2022-08-02T04:17:48.221Z,11.73
2022-08-02T04:20:19.347Z,9.25
2022-08-02T04:22:55.171Z,7.32
2022-08-02T04:25:34.433Z,9.00
2022-08-02T04:28:16.637Z,9.63
2022-08-02T04:30:45.905Z,10.20
2022-08-02T04:33:13.323Z,8.55
2022-08-02T04:35:40.383Z,14.50
2022-08-02T04:38:10.614Z,7.17
2022-08-02T04:40:38.652Z,12.48
2022-08-02T04:43:05.953Z,12.55
2022-08-02T04:45:33.375Z,10.68
2022-08-02T04:48:07.422Z,10.82
2022-08-02T04:50:34.958Z,9.17
2022-08-02T04:53:02.229Z,6.85
2022-08-02T04:55:30.044Z,8.63
2022-08-02T04:57:58.347Z,10.38
2022-08-02T05:00:27.463Z,12.70
2022-08-02T05:02:56.267Z,9.03
2022-08-02T05:05:23.645Z,8.05
2022-08-02T05:07:50.603Z,6.13
2022-08-02T05:10:17.705Z,8.90
2022-08-02T05:12:44.687Z,10.20
2022-08-02T05:15:13.329Z,10.00
2022-08-02T05:17:47.805Z,8.10
2022-08-02T05:20:17.124Z,11.90
2022-08-02T05:22:44.457Z,6.78
2022-08-02T05:25:12.045Z,17.33
2022-08-02T05:27:39.192Z,10.23
2022-08-02T05:30:07.390Z,7.57
2022-08-02T05:32:34.656Z,12.20
2022-08-02T05:35:02.236Z,8.50
2022-08-02T05:37:32.229Z,8.68
2022-08-02T05:40:00.962Z,12.80
2022-08-02T05:42:32.425Z,10.18
2022-08-02T05:44:59.672Z,8.13
2022-08-02T05:47:26.628Z,16.10
2022-08-02T05:49:53.835Z,11.05
2022-08-02T05:52:22.816Z,9.23
2022-08-02T05:55:17.349Z,10.85
2022-08-02T05:58:05.662Z,7.18
2022-08-02T06:00:35.420Z,9.73
2022-08-02T06:03:17.079Z,9.80
2022-08-02T06:06:11.256Z,7.70
2022-08-02T06:08:47.598Z,9.70
2022-08-02T06:11:18.112Z,14.10
2022-08-02T06:13:46.493Z,12.07
2022-08-02T06:16:14.361Z,10.05
2022-08-02T06:18:43.326Z,7.67
2022-08-02T06:22:34.458Z,8.90
2022-08-02T06:23:59.424Z,14.80
2022-08-02T06:26:28.316Z,13.05
2022-08-02T06:28:57.911Z,13.15
2022-08-02T06:31:25.528Z,10.47
2022-08-02T06:33:53.111Z,9.05
2022-08-02T06:36:31.163Z,20.10
2022-08-02T06:39:14.430Z,14.15
2022-08-02T06:41:42.728Z,12.00
2022-08-02T06:47:13.064Z,15.20
2022-08-02T06:49:51.617Z,9.63
2022-08-02T06:52:28.212Z,12.52
2022-08-02T06:54:57.502Z,11.68
2022-08-02T06:57:24.519Z,14.17
2022-08-02T06:59:51.740Z,9.77
2022-08-02T07:02:18.774Z,9.07
2022-08-02T07:04:45.774Z,11.80
2022-08-02T07:07:12.818Z,11.60
2022-08-02T07:09:39.877Z,7.30
2022-08-02T07:12:27.217Z,10.27
2022-08-02T07:14:54.149Z,11.13
2022-08-02T07:17:21.081Z,12.90
2022-08-02T07:19:48.182Z,12.90
2022-08-02T07:22:15.568Z,13.88
2022-08-02T07:24:42.789Z,13.75
2022-08-02T07:27:11.581Z,12.88
2022-08-02T07:29:45.467Z,10.60
2022-08-02T07:32:18.144Z,12.25
2022-08-02T07:34:53.036Z,14.60
2022-08-02T07:37:53.898Z,14.75
2022-08-02T07:40:19.996Z,23.98
2022-08-02T07:42:49.241Z,16.60
2022-08-02T07:45:16.172Z,12.10
2022-08-02T07:47:44.892Z,18.92
2022-08-02T07:50:13.388Z,14.23
2022-08-02T07:52:41.495Z,12.82
2022-08-02T07:55:10.938Z,12.82
2022-08-02T07:57:43.844Z,17.30
2022-08-02T08:00:13.991Z,16.67
2022-08-02T08:02:41.302Z,13.20
2022-08-02T08:05:08.775Z,20.75
2022-08-02T08:07:35.927Z,18.05
2022-08-02T08:10:04.154Z,18.70
2022-08-02T08:12:31.138Z,17.48
2022-08-02T08:14:58.146Z,15.07
2022-08-02T08:17:25.339Z,19.20
2022-08-02T08:19:52.987Z,19.70
2022-08-02T08:22:21.025Z,19.77
2022-08-02T08:24:48.903Z,20.52
2022-08-02T08:27:17.019Z,21.60
2022-08-02T08:29:44.937Z,14.63
2022-08-02T08:32:17.816Z,16.75
2022-08-02T08:34:49.060Z,13.25
2022-08-02T08:37:18.585Z,15.18
2022-08-02T08:39:53.784Z,12.80
2022-08-02T08:42:30.938Z,14.10
2022-08-02T08:44:58.850Z,12.50
2022-08-02T08:47:40.799Z,14.18
2022-08-02T08:50:20.117Z,9.13
2022-08-02T08:53:12.310Z,9.13
2022-08-02T08:55:41.001Z,13.93
2022-08-02T08:58:07.962Z,9.40
2022-08-02T09:00:35.953Z,6.22
2022-08-02T09:03:05.574Z,5.80
2022-08-02T09:05:35.196Z,10.75
2022-08-02T09:08:02.154Z,7.05
2022-08-02T09:10:42.302Z,7.90
2022-08-02T09:13:38.866Z,6.70
2022-08-02T09:16:12.077Z,6.88
2022-08-02T09:18:44.655Z,6.65
2022-08-02T09:21:13.694Z,5.60
2022-08-02T09:23:44.110Z,5.07
2022-08-02T09:26:13.459Z,4.95
2022-08-02T09:28:42.838Z,5.53
2022-08-02T09:31:11.007Z,5.60
2022-08-02T09:33:43.326Z,5.65
2022-08-02T09:36:14.405Z,9.43
2022-08-02T09:38:52.511Z,8.50
2022-08-02T09:41:27.253Z,8.40
2022-08-02T09:44:05.220Z,5.87
2022-08-02T09:46:39.008Z,12.20
2022-08-02T09:49:17.200Z,10.43
2022-08-02T09:51:47.217Z,7.95
2022-08-02T09:54:33.115Z,10.80
2022-08-02T09:57:01.675Z,10.47
2022-08-02T09:59:29.983Z,7.75
2022-08-02T10:02:02.205Z,7.30
2022-08-02T10:04:34.375Z,9.93
2022-08-02T10:07:21.604Z,8.25
2022-08-02T10:09:50.006Z,10.27
2022-08-02T10:12:17.416Z,7.13
2022-08-02T10:14:45.415Z,11.45
2022-08-02T10:17:12.756Z,10.40
2022-08-02T10:20:03.242Z,7.07
2022-08-02T10:22:27.887Z,6.37
2022-08-02T10:24:55.371Z,5.68
2022-08-02T10:27:25.206Z,7.63
2022-08-02T10:29:55.899Z,6.40
2022-08-02T10:32:30.101Z,7.43
2022-08-02T10:35:23.347Z,8.23
2022-08-02T10:37:58.720Z,7.43
2022-08-02T10:40:28.510Z,5.35
2022-08-02T10:43:01.050Z,6.75
2022-08-02T10:45:28.734Z,4.45
2022-08-02T10:48:10.098Z,5.17
2022-08-02T10:50:46.294Z,3.97
2022-08-02T10:53:39.335Z,5.07
2022-08-02T10:56:09.177Z,2.83
2022-08-02T10:58:36.462Z,6.35
2022-08-02T11:01:38.818Z,4.00
2022-08-02T11:04:10.502Z,3.50
2022-08-02T11:07:26.602Z,3.50
2022-08-02T11:09:53.786Z,2.78
2022-08-02T11:12:21.981Z,4.05
2022-08-02T11:15:07.894Z,3.23
2022-08-02T11:18:01.497Z,5.78
2022-08-02T11:20:28.592Z,2.97
2022-08-02T11:23:15.832Z,6.00
2022-08-02T11:26:03.232Z,3.55
2022-08-02T11:28:30.406Z,3.23
2022-08-02T11:31:02.916Z,4.45
2022-08-02T11:33:34.134Z,5.95
2022-08-02T11:36:04.067Z,6.55
2022-08-02T11:38:31.167Z,4.10
2022-08-02T11:40:58.276Z,2.73
2022-08-02T11:43:27.495Z,6.95
2022-08-02T11:45:56.308Z,6.15
2022-08-02T11:48:34.708Z,2.50
2022-08-02T11:51:10.583Z,2.75
2022-08-02T11:53:54.792Z,3.03
2022-08-02T11:56:35.271Z,2.63
2022-08-02T11:59:10.446Z,1.83
2022-08-02T12:01:45.957Z,1.85
2022-08-02T12:04:17.497Z,4.18
2022-08-02T12:06:53.626Z,5.27
2022-08-02T12:09:20.614Z,2.78
2022-08-02T12:11:51.385Z,2.05
2022-08-02T12:14:19.085Z,7.38
2022-08-02T12:17:05.955Z,5.10
2022-08-02T12:19:32.951Z,3.17
2022-08-02T12:22:24.415Z,2.97
2022-08-02T12:24:56.852Z,4.28
2022-08-02T12:27:38.186Z,3.35
2022-08-02T12:30:07.566Z,4.03
2022-08-02T12:32:34.852Z,6.80
2022-08-02T12:35:13.395Z,1.83
2022-08-02T12:37:45.801Z,3.92
2022-08-02T12:40:25.634Z,2.72
2022-08-02T12:42:57.660Z,3.15
2022-08-02T12:45:26.683Z,4.30
2022-08-02T12:48:03.749Z,1.90
2022-08-02T12:50:37.292Z,2.92
2022-08-02T12:53:10.710Z,4.25
2022-08-02T12:56:01.277Z,4.30
2022-08-02T12:58:31.600Z,1.70
2022-08-02T13:01:00.724Z,4.95
2022-08-02T13:04:10.326Z,1.58
2022-08-02T13:06:41.965Z,4.15
2022-08-02T13:09:03.554Z,2.58
2022-08-02T13:11:30.548Z,6.00
2022-08-02T13:13:57.527Z,6.57
2022-08-02T13:16:30.493Z,3.53
2022-08-02T13:18:58.841Z,6.88
2022-08-02T13:21:41.449Z,1.38
2022-08-02T13:24:32.941Z,3.57
2022-08-02T13:27:04.611Z,6.60
2022-08-02T13:29:33.545Z,6.03
2022-08-02T13:32:00.483Z,4.55
2022-08-02T13:34:27.495Z,6.22
2022-08-02T13:36:54.479Z,6.40
2022-08-02T13:39:21.458Z,1.40
2022-08-02T13:41:48.406Z,3.60
2022-08-02T13:44:15.377Z,2.75
2022-08-02T13:46:45.307Z,3.25
2022-08-02T13:49:19.609Z,3.47
2022-08-02T13:51:47.886Z,5.13
2022-08-02T13:54:15.610Z,2.28
2022-08-02T13:56:43.114Z,2.67
2022-08-02T13:59:54.749Z,5.03
2022-08-02T14:01:58.827Z,3.40
2022-08-02T14:04:26.513Z,4.13
2022-08-02T14:06:53.749Z,3.95
2022-08-02T14:09:20.852Z,3.03
2022-08-02T14:11:48.341Z,5.72
2022-08-02T14:14:16.844Z,2.20
2022-08-02T14:16:46.579Z,4.13
2022-08-02T14:19:15.565Z,6.97
2022-08-02T14:21:45.989Z,4.35
2022-08-02T14:24:15.154Z,2.10
2022-08-02T14:26:42.279Z,3.27
2022-08-02T14:29:09.325Z,2.85
2022-08-02T14:31:40.321Z,5.22
2022-08-02T14:34:11.731Z,3.05
2022-08-02T14:36:39.228Z,3.90
2022-08-02T14:39:06.511Z,7.00
2022-08-02T14:41:59.590Z,4.55
2022-08-02T14:44:23.982Z,3.05
2022-08-02T14:46:51.854Z,3.30
2022-08-02T14:49:25.561Z,7.15
2022-08-02T14:51:54.883Z,5.20
2022-08-02T14:54:27.835Z,5.45
2022-08-02T14:56:58.473Z,8.90
2022-08-02T14:59:25.591Z,5.35
2022-08-02T15:01:52.837Z,6.90
2022-08-02T15:04:20.005Z,4.70
2022-08-02T15:06:47.194Z,5.60
2022-08-02T15:09:14.152Z,7.65
2022-08-02T15:11:48.106Z,7.90
2022-08-02T15:14:21.814Z,7.30
2022-08-02T15:16:58.682Z,5.87
2022-08-02T15:19:54.648Z,7.78
2022-08-02T15:22:16.809Z,5.13
2022-08-02T15:24:47.206Z,4.47
2022-08-02T15:27:15.106Z,6.25
2022-08-02T15:29:43.760Z,4.40
2022-08-02T15:32:11.757Z,1.85
2022-08-02T15:34:39.732Z,10.07
2022-08-02T15:37:06.889Z,5.25
2022-08-02T15:39:33.910Z,2.58
2022-08-02T15:42:00.870Z,7.17
2022-08-02T15:44:27.947Z,7.13
2022-08-02T15:46:55.079Z,7.85
2022-08-02T15:49:24.710Z,7.85
2022-08-02T15:51:53.049Z,6.28
2022-08-02T15:54:20.714Z,4.57
2022-08-02T15:56:47.746Z,3.53
2022-08-02T15:59:15.084Z,7.10
2022-08-02T16:01:46.655Z,4.75
2022-08-02T16:04:15.676Z,4.20
2022-08-02T16:06:43.530Z,5.17
2022-08-02T16:09:10.682Z,10.27
2022-08-02T16:11:37.817Z,9.25
2022-08-02T16:14:04.829Z,5.82
2022-08-02T16:16:34.241Z,3.95
2022-08-02T16:19:47.119Z,8.63
2022-08-02T16:21:50.749Z,5.30
2022-08-02T16:24:18.201Z,7.20
2022-08-02T16:26:46.854Z,5.53
2022-08-02T16:29:14.055Z,10.93
2022-08-02T16:31:47.310Z,11.47
2022-08-02T16:34:16.213Z,5.63
2022-08-02T16:36:43.530Z,3.38
2022-08-02T16:39:10.823Z,8.55
2022-08-02T16:41:50.690Z,5.47
2022-08-02T16:44:29.589Z,8.97
2022-08-02T16:50:05.484Z,5.10
2022-08-02T16:52:32.810Z,2.92
2022-08-02T16:55:00.371Z,9.20
2022-08-02T16:57:43.479Z,6.37
2022-08-02T17:00:14.141Z,6.72
2022-08-02T17:02:42.788Z,3.80
2022-08-02T17:05:14.630Z,4.97
2022-08-02T17:08:07.877Z,3.35
2022-08-02T17:10:32.208Z,7.63
2022-08-02T17:16:15.901Z,6.10
2022-08-02T17:18:42.794Z,13.45
2022-08-02T17:21:11.314Z,6.10
2022-08-02T17:24:03.853Z,5.77
2022-08-02T17:26:26.427Z,4.80
2022-08-02T17:29:14.177Z,10.18
2022-08-02T17:31:43.654Z,7.78
2022-08-02T17:34:16.637Z,9.27
2022-08-02T17:36:44.931Z,8.67
2022-08-02T17:39:17.315Z,6.88
2022-08-02T17:41:49.484Z,7.03
2022-08-02T17:44:37.648Z,8.70
2022-08-02T17:47:07.329Z,6.65
2022-08-02T17:49:43.014Z,9.70
2022-08-02T17:52:51.813Z,5.30
2022-08-02T17:55:04.576Z,6.35
2022-08-02T17:57:57.070Z,4.43
2022-08-02T18:00:21.982Z,7.22
2022-08-02T18:02:55.179Z,11.00
2022-08-02T18:05:39.049Z,11.25
2022-08-02T18:08:10.531Z,4.97
2022-08-02T18:10:41.671Z,5.40
2022-08-02T18:13:09.346Z,9.20
2022-08-02T18:15:36.517Z,3.80
2022-08-02T18:18:03.895Z,6.93
2022-08-02T18:20:31.293Z,6.00
2022-08-02T18:22:59.193Z,4.53
2022-08-02T18:25:37.729Z,7.90
2022-08-02T18:28:14.254Z,7.03
2022-08-02T18:30:41.722Z,10.00
2022-08-02T18:33:58.494Z,7.32
2022-08-02T18:35:56.365Z,7.70
2022-08-02T18:38:25.103Z,4.88
2022-08-02T18:40:55.581Z,5.73
2022-08-02T18:43:25.579Z,7.70
2022-08-02T18:46:07.449Z,5.75
2022-08-02T18:48:46.871Z,11.18
2022-08-02T18:51:16.317Z,9.20
2022-08-02T18:53:51.057Z,4.63
2022-08-02T18:56:20.359Z,9.10
2022-08-02T18:58:55.103Z,8.60
2022-08-02T19:01:33.502Z,8.20
2022-08-02T19:04:04.393Z,7.15
2022-08-02T19:06:34.740Z,5.17
2022-08-02T19:09:10.505Z,6.70
2022-08-02T19:11:48.245Z,11.38
2022-08-02T19:14:27.571Z,8.07
2022-08-02T19:16:59.732Z,6.38
2022-08-02T19:19:28.773Z,5.20
2022-08-02T19:22:18.051Z,9.82
2022-08-02T19:24:50.562Z,6.32
2022-08-02T19:27:26.109Z,9.48
2022-08-02T19:30:03.240Z,5.75
2022-08-02T19:32:41.732Z,9.93
2022-08-02T19:35:30.611Z,4.47
2022-08-02T19:38:09.734Z,6.03
2022-08-02T19:40:38.775Z,8.45
2022-08-02T19:44:24.792Z,11.65
2022-08-02T19:45:56.981Z,7.80
2022-08-02T19:48:25.485Z,11.68
2022-08-02T19:50:56.713Z,15.02
2022-08-02T19:53:28.981Z,10.57
2022-08-02T19:56:20.227Z,7.90
2022-08-02T19:58:47.952Z,6.43
2022-08-02T20:01:16.609Z,9.07
2022-08-02T20:06:32.614Z,15.35
2022-08-02T20:09:01.059Z,11.30
2022-08-02T20:11:34.649Z,9.38
2022-08-02T20:14:07.121Z,6.35
2022-08-02T20:16:35.478Z,7.53
2022-08-02T20:19:07.844Z,10.15
2022-08-02T20:21:36.945Z,11.85
2022-08-02T20:24:09.830Z,15.63
2022-08-02T20:26:47.655Z,7.78
2022-08-02T20:29:15.050Z,6.47
2022-08-02T20:31:44.752Z,7.35
2022-08-02T20:34:11.680Z,8.85
2022-08-02T20:36:39.663Z,7.32
2022-08-02T20:39:06.676Z,11.65
2022-08-02T20:41:46.365Z,14.98
2022-08-02T20:44:30.774Z,5.20
2022-08-02T20:46:59.045Z,5.68
2022-08-02T20:49:40.921Z,8.02
2022-08-02T20:52:23.728Z,9.90
2022-08-02T20:54:52.472Z,6.40
2022-08-02T20:57:19.447Z,14.40
2022-08-02T21:00:07.780Z,6.72
2022-08-02T21:02:34.778Z,11.18
2022-08-02T21:05:07.929Z,9.63
2022-08-02T21:07:47.781Z,6.22
2022-08-02T21:10:15.235Z,8.02
2022-08-02T21:12:42.578Z,6.68
2022-08-02T21:15:12.665Z,8.63
2022-08-02T21:17:45.833Z,7.82
2022-08-02T21:20:27.473Z,10.85
2022-08-02T21:22:56.861Z,10.48
2022-08-02T21:25:50.616Z,8.73
2022-08-02T21:28:17.485Z,7.57
2022-08-02T21:30:45.214Z,8.05
2022-08-02T21:33:22.436Z,8.55
2022-08-02T21:35:50.767Z,11.40
2022-08-02T21:38:36.595Z,9.70
2022-08-02T21:41:06.215Z,11.70
2022-08-02T21:43:38.662Z,10.93
2022-08-02T21:46:06.355Z,8.60
2022-08-02T21:48:35.773Z,8.73
2022-08-02T21:51:04.402Z,8.20
2022-08-02T21:53:42.020Z,8.77
2022-08-02T21:56:10.557Z,8.95
2022-08-02T21:58:37.809Z,11.30
2022-08-02T22:01:05.392Z,7.68
2022-08-02T22:03:32.921Z,9.25
2022-08-02T22:05:59.955Z,6.88
2022-08-02T22:08:26.854Z,11.43
2022-08-02T22:11:03.957Z,9.32
2022-08-02T22:13:38.853Z,7.20
2022-08-02T22:16:14.553Z,9.20
2022-08-02T22:18:41.783Z,7.05
2022-08-02T22:21:18.616Z,7.57
2022-08-02T22:23:50.337Z,12.90
2022-08-02T22:26:19.044Z,8.13
2022-08-02T22:28:50.272Z,10.02
2022-08-02T22:31:40.588Z,10.02
2022-08-02T22:34:11.536Z,11.40
2022-08-02T22:36:54.117Z,10.88
2022-08-02T22:39:21.116Z,11.02
2022-08-02T22:42:05.843Z,10.20
2022-08-02T22:44:35.210Z,7.35
2022-08-02T22:47:13.723Z,7.82
2022-08-02T22:49:51.896Z,6.95
2022-08-02T22:52:23.108Z,7.53
2022-08-02T22:54:51.147Z,6.25
2022-08-02T22:57:30.505Z,6.70
2022-08-02T22:58:34.851Z,7.07
2022-08-02T22:58:51.074Z,6.43
2022-08-02T22:59:05.857Z,12.13
2022-08-02T22:59:59.595Z,9.73
2022-08-02T23:02:27.031Z,5.95
2022-08-02T23:04:54.719Z,5.75
2022-08-02T23:07:21.630Z,10.95
2022-08-02T23:09:48.586Z,4.38
2022-08-02T23:12:19.228Z,3.90
2022-08-02T23:14:51.171Z,7.38
2022-08-02T23:17:37.981Z,4.28
2022-08-02T23:20:06.607Z,6.32
2022-08-02T23:22:33.754Z,11.40
2022-08-02T23:25:02.239Z,7.72
2022-08-02T23:27:30.511Z,3.88
2022-08-02T23:29:58.026Z,5.35
2022-08-02T23:32:25.680Z,12.63
2022-08-02T23:34:56.889Z,6.57
2022-08-02T23:37:24.475Z,9.52
2022-08-02T23:39:51.619Z,6.70
2022-08-02T23:42:18.896Z,4.72
2022-08-02T23:44:46.089Z,9.05
2022-08-02T23:47:13.133Z,6.22
2022-08-02T23:49:40.143Z,8.40
2022-08-02T23:52:07.287Z,10.73
2022-08-02T23:54:34.505Z,4.75
2022-08-02T23:57:20.977Z,5.80
2022-08-02T23:59:49.379Z,9.68
